createdAt,value
2023-04-17T00:00:29.619Z,42.78
2023-04-17T00:03:17.077Z,43.90
2023-04-17T00:06:06.966Z,42.70
2023-04-17T00:08:54.729Z,44.05
2023-04-17T00:11:42.617Z,41.85
2023-04-17T00:14:30.246Z,42.33
2023-04-17T00:17:17.089Z,42.65
2023-04-17T00:20:09.441Z,43.83
2023-04-17T00:22:57.779Z,43.85
2023-04-17T00:25:45.627Z,43.03
2023-04-17T00:28:34.345Z,43.10
2023-04-17T00:31:21.441Z,43.13
2023-04-17T00:34:08.792Z,40.67
2023-04-17T00:36:56.434Z,43.35
2023-04-17T00:39:45.279Z,42.70
2023-04-17T00:42:32.933Z,45.40
2023-04-17T00:45:21.662Z,42.80
2023-04-17T00:48:10.373Z,43.42
2023-04-17T00:51:02.255Z,43.60
2023-04-17T00:53:49.990Z,43.47
2023-04-17T00:56:39.002Z,45.00
2023-04-17T00:59:28.242Z,46.85
2023-04-17T01:02:16.902Z,44.53
2023-04-17T01:05:04.307Z,44.83
2023-04-17T01:07:51.822Z,47.17
2023-04-17T01:10:39.067Z,46.88
2023-04-17T01:13:27.610Z,46.63
2023-04-17T01:16:15.287Z,45.47
2023-04-17T01:19:02.666Z,47.78
2023-04-17T01:21:49.475Z,45.83
2023-04-17T01:24:38.163Z,50.47
2023-04-17T01:27:25.873Z,48.40
2023-04-17T01:30:14.416Z,45.37
2023-04-17T01:33:08.820Z,47.30
2023-04-17T01:35:56.641Z,47.97
2023-04-17T01:38:44.486Z,48.10
2023-04-17T01:41:33.443Z,49.50
2023-04-17T01:44:20.569Z,48.83
2023-04-17T01:47:07.740Z,47.70
2023-04-17T01:49:54.998Z,48.28
2023-04-17T01:52:43.058Z,48.35
2023-04-17T01:55:30.529Z,46.55
2023-04-17T01:58:19.508Z,48.47
2023-04-17T02:01:07.729Z,50.83
2023-04-17T02:03:55.136Z,48.33
2023-04-17T02:06:43.149Z,49.30
2023-04-17T02:09:30.478Z,47.85
2023-04-17T02:12:17.478Z,50.53
2023-04-17T02:15:07.715Z,49.67
2023-04-17T02:17:54.790Z,51.73
2023-04-17T02:20:41.905Z,52.50
2023-04-17T02:23:28.842Z,48.85
2023-04-17T02:26:17.190Z,51.30
2023-04-17T02:29:04.768Z,53.57
2023-04-17T02:31:53.310Z,51.25
2023-04-17T02:34:40.741Z,51.85
2023-04-17T02:37:27.814Z,54.65
2023-04-17T02:40:16.283Z,56.80
2023-04-17T02:43:03.133Z,55.03
2023-04-17T02:45:51.330Z,55.10
2023-04-17T02:48:39.913Z,54.15
2023-04-17T02:51:27.614Z,57.53
2023-04-17T02:54:14.984Z,59.67
2023-04-17T02:57:03.123Z,58.92
2023-04-17T02:59:50.308Z,57.28
2023-04-17T03:02:38.267Z,57.63
2023-04-17T03:05:30.489Z,65.85
2023-04-17T03:08:19.854Z,57.85
2023-04-17T03:11:09.636Z,59.50
2023-04-17T03:13:56.943Z,59.43
2023-04-17T03:16:44.772Z,62.92
2023-04-17T03:19:32.010Z,61.38
2023-04-17T03:22:20.773Z,59.33
2023-04-17T03:25:09.525Z,59.80
2023-04-17T03:28:16.734Z,57.67
2023-04-17T03:31:04.875Z,61.10
2023-04-17T03:33:53.450Z,57.20
2023-04-17T03:36:40.540Z,58.05
2023-04-17T03:39:30.837Z,59.90
2023-04-17T03:42:18.269Z,58.63
2023-04-17T03:45:07.329Z,54.70
2023-04-17T03:47:54.294Z,57.57
2023-04-17T03:50:41.867Z,56.25
2023-04-17T03:53:30.978Z,53.00
2023-04-17T03:56:22.780Z,52.50
2023-04-17T03:59:10.307Z,47.88
2023-04-17T04:02:01.908Z,50.95
2023-04-17T04:04:53.735Z,50.58
2023-04-17T04:07:41.286Z,50.67
2023-04-17T04:10:29.410Z,49.13
2023-04-17T04:13:18.677Z,49.33
2023-04-17T04:16:12.051Z,48.30
2023-04-17T04:19:00.799Z,47.88
2023-04-17T04:21:47.819Z,49.40
2023-04-17T04:24:35.347Z,47.40
2023-04-17T04:27:24.002Z,46.92
2023-04-17T04:30:15.725Z,46.65
2023-04-17T04:33:08.483Z,45.77
2023-04-17T04:35:56.647Z,46.47
2023-04-17T04:38:44.358Z,47.05
2023-04-17T04:41:45.932Z,46.70
2023-04-17T04:44:34.794Z,47.70
2023-04-17T04:47:24.090Z,47.83
2023-04-17T04:50:11.589Z,46.00
2023-04-17T04:52:58.520Z,44.42
2023-04-17T04:56:09.201Z,44.13
2023-04-17T04:58:59.724Z,45.67
2023-04-17T05:01:47.863Z,44.37
2023-04-17T05:04:39.717Z,45.03
2023-04-17T05:07:27.366Z,44.80
2023-04-17T05:10:14.685Z,42.55
2023-04-17T05:13:07.442Z,48.25
2023-04-17T05:15:54.688Z,42.80
2023-04-17T05:18:48.392Z,40.80
2023-04-17T05:21:41.611Z,40.47
2023-04-17T05:24:29.023Z,36.97
2023-04-17T05:27:16.662Z,37.37
2023-04-17T05:30:05.216Z,36.45
2023-04-17T05:32:54.030Z,36.28
2023-04-17T05:35:51.699Z,36.08
2023-04-17T05:38:42.989Z,37.70
2023-04-17T05:41:31.844Z,37.72
2023-04-17T05:44:19.020Z,38.67
2023-04-17T05:47:06.420Z,40.13
2023-04-17T05:49:57.569Z,40.95
2023-04-17T05:52:48.691Z,39.67
2023-04-17T05:55:37.629Z,41.10
2023-04-17T05:58:29.027Z,41.58
2023-04-17T06:01:22.398Z,41.92
2023-04-17T06:04:13.156Z,41.10
2023-04-17T06:07:02.654Z,42.53
2023-04-17T06:09:50.877Z,40.33
2023-04-17T06:12:39.660Z,39.67
2023-04-17T06:15:30.088Z,39.10
2023-04-17T06:18:17.868Z,38.30
2023-04-17T06:21:05.722Z,37.67
2023-04-17T06:23:52.525Z,38.17
2023-04-17T06:26:39.732Z,37.50
2023-04-17T06:29:28.954Z,36.67
2023-04-17T06:32:16.013Z,36.28
2023-04-17T06:35:03.239Z,35.97
2023-04-17T06:38:02.596Z,34.97
2023-04-17T06:40:51.438Z,34.37
2023-04-17T06:43:39.841Z,34.95
2023-04-17T06:46:37.437Z,34.13
2023-04-17T06:49:24.956Z,34.92
2023-04-17T06:52:15.456Z,35.38
2023-04-17T06:55:03.495Z,36.70
2023-04-17T06:57:50.839Z,36.47
2023-04-17T07:00:38.750Z,35.20
2023-04-17T07:03:27.974Z,36.27
2023-04-17T07:06:15.949Z,35.60
2023-04-17T07:09:03.720Z,36.60
2023-04-17T07:11:50.979Z,38.03
2023-04-17T07:14:38.461Z,37.17
2023-04-17T07:17:27.120Z,37.80
2023-04-17T07:20:16.564Z,38.60
2023-04-17T07:23:04.202Z,37.17
2023-04-17T07:25:52.049Z,39.33
2023-04-17T07:28:40.166Z,38.63
2023-04-17T07:31:28.598Z,42.08
2023-04-17T07:34:16.666Z,37.83
2023-04-17T07:37:06.350Z,41.17
2023-04-17T07:39:54.493Z,39.37
2023-04-17T07:42:42.013Z,38.50
2023-04-17T07:45:30.159Z,40.15
2023-04-17T07:48:18.958Z,39.97
2023-04-17T07:51:06.144Z,39.75
2023-04-17T07:53:54.609Z,39.88
2023-04-17T07:56:42.230Z,40.30
2023-04-17T07:59:30.462Z,41.45
2023-04-17T08:02:19.045Z,41.70
2023-04-17T08:05:09.663Z,42.80
2023-04-17T08:07:57.590Z,44.47
2023-04-17T08:10:46.766Z,48.30
2023-04-17T08:13:34.157Z,46.55
2023-04-17T08:16:22.234Z,50.42
2023-04-17T08:19:09.524Z,47.67
2023-04-17T08:22:04.124Z,48.88
2023-04-17T08:24:54.865Z,44.22
2023-04-17T08:27:45.215Z,44.25
2023-04-17T08:30:32.012Z,44.40
2023-04-17T08:33:19.224Z,45.15
2023-04-17T08:36:09.771Z,45.40
2023-04-17T08:38:57.912Z,45.75
2023-04-17T08:42:00.898Z,48.50
2023-04-17T08:44:49.123Z,93.68
2023-04-17T08:47:37.144Z,49.23
2023-04-17T08:50:25.056Z,46.83
2023-04-17T08:53:12.137Z,46.30
2023-04-17T08:56:06.828Z,47.67
2023-04-17T08:58:56.201Z,48.80
2023-04-17T09:02:04.080Z,49.45
2023-04-17T09:04:51.817Z,49.15
2023-04-17T09:07:45.906Z,45.75
2023-04-17T09:10:37.112Z,45.55
2023-04-17T09:13:28.760Z,45.30
2023-04-17T09:16:16.864Z,43.83
2023-04-17T09:19:09.443Z,41.10
2023-04-17T09:21:56.880Z,38.88
2023-04-17T09:24:44.828Z,39.47
2023-04-17T09:27:32.908Z,42.10
2023-04-17T09:30:20.550Z,41.72
2023-04-17T09:33:09.357Z,40.58
2023-04-17T09:35:58.223Z,40.38
2023-04-17T09:38:46.152Z,40.38
2023-04-17T09:41:36.453Z,38.72
2023-04-17T09:44:28.258Z,38.77
2023-04-17T09:47:18.902Z,38.00
2023-04-17T09:50:08.363Z,37.38
2023-04-17T09:52:57.531Z,37.58
2023-04-17T09:55:45.148Z,37.47
2023-04-17T09:58:33.758Z,36.65
2023-04-17T10:01:21.929Z,36.33
2023-04-17T10:04:10.244Z,36.35
2023-04-17T10:06:59.033Z,36.80
2023-04-17T10:09:48.525Z,35.60
2023-04-17T10:12:37.055Z,35.90
2023-04-17T10:15:26.567Z,35.95
2023-04-17T10:18:21.367Z,37.80
2023-04-17T10:21:23.108Z,37.77
2023-04-17T10:24:26.328Z,35.83
2023-04-17T10:27:46.426Z,37.70
2023-04-17T10:30:54.627Z,38.03
2023-04-17T10:33:51.058Z,38.10
2023-04-17T10:36:50.972Z,38.92
2023-04-17T10:39:52.743Z,37.70
2023-04-17T10:42:40.779Z,37.80
2023-04-17T10:45:53.217Z,38.13
2023-04-17T10:48:47.010Z,37.65
2023-04-17T10:51:44.641Z,37.25
2023-04-17T10:54:34.209Z,36.90
2023-04-17T10:58:00.911Z,36.55
2023-04-17T11:00:53.378Z,38.65
2023-04-17T11:03:42.922Z,36.67
2023-04-17T11:06:32.811Z,37.78
2023-04-17T11:09:22.981Z,37.20
2023-04-17T11:12:10.237Z,36.42
2023-04-17T11:15:03.442Z,36.17
2023-04-17T11:17:52.552Z,36.25
2023-04-17T11:20:40.377Z,35.55
2023-04-17T11:23:34.144Z,35.80
2023-04-17T11:26:21.449Z,37.13
2023-04-17T11:29:15.276Z,36.37
2023-04-17T11:32:03.887Z,37.03
2023-04-17T11:34:56.632Z,36.15
2023-04-17T11:38:12.550Z,36.53
2023-04-17T11:41:02.523Z,32.78
2023-04-17T11:43:52.961Z,32.83
2023-04-17T11:46:40.454Z,32.65
2023-04-17T11:49:28.890Z,32.42
2023-04-17T11:52:18.139Z,34.17
2023-04-17T11:55:09.697Z,32.97
2023-04-17T11:57:58.559Z,32.35
2023-04-17T12:00:46.147Z,33.83
2023-04-17T12:03:36.228Z,32.92
2023-04-17T12:06:24.952Z,31.45
2023-04-17T12:09:21.960Z,31.40
2023-04-17T12:12:09.940Z,30.73
2023-04-17T12:14:59.076Z,30.85
2023-04-17T12:17:46.752Z,32.90
2023-04-17T12:20:38.110Z,31.55
2023-04-17T12:23:25.273Z,32.55
2023-04-17T12:26:14.385Z,31.67
2023-04-17T12:29:01.954Z,30.65
2023-04-17T12:31:49.286Z,32.70
2023-04-17T12:34:36.501Z,32.75
2023-04-17T12:37:24.380Z,32.42
2023-04-17T12:40:12.262Z,32.60
2023-04-17T12:43:01.900Z,31.53
2023-04-17T12:45:49.730Z,31.50
2023-04-17T12:48:37.104Z,30.10
2023-04-17T12:51:24.834Z,31.60
2023-04-17T12:54:12.350Z,33.45
2023-04-17T12:57:00.364Z,33.37
2023-04-17T12:59:49.992Z,33.40
2023-04-17T13:02:37.749Z,32.83
2023-04-17T13:05:25.749Z,33.05
2023-04-17T13:08:15.324Z,32.37
2023-04-17T13:11:04.813Z,32.72
2023-04-17T13:13:52.114Z,33.87
2023-04-17T13:16:40.825Z,32.13
2023-04-17T13:19:28.434Z,32.03
2023-04-17T13:22:17.848Z,31.00
2023-04-17T13:25:07.062Z,31.23
2023-04-17T13:27:55.624Z,31.83
2023-04-17T13:30:43.390Z,32.40
2023-04-17T13:33:32.712Z,31.98
2023-04-17T13:36:20.031Z,31.60
2023-04-17T13:39:07.865Z,32.50
2023-04-17T13:41:57.450Z,31.92
2023-04-17T13:44:45.127Z,31.67
2023-04-17T13:47:32.969Z,32.55
2023-04-17T13:50:22.003Z,31.75
2023-04-17T13:53:11.074Z,32.03
2023-04-17T13:55:58.777Z,32.70
2023-04-17T13:58:47.945Z,31.43
2023-04-17T14:01:35.431Z,31.38
2023-04-17T14:04:22.713Z,32.38
2023-04-17T14:07:12.862Z,31.17
2023-04-17T14:10:00.631Z,30.35
2023-04-17T14:12:48.783Z,28.80
2023-04-17T14:15:36.399Z,30.25
2023-04-17T14:18:25.052Z,30.08
2023-04-17T14:21:12.504Z,31.45
2023-04-17T14:24:02.052Z,29.70
2023-04-17T14:26:49.703Z,29.52
2023-04-17T14:29:36.710Z,29.00
2023-04-17T14:32:24.534Z,28.15
2023-04-17T14:35:13.354Z,27.80
2023-04-17T14:38:04.972Z,28.17
2023-04-17T14:40:54.254Z,26.77
2023-04-17T14:43:41.516Z,25.77
2023-04-17T14:46:29.208Z,26.95
2023-04-17T14:49:16.594Z,26.95
2023-04-17T14:52:04.160Z,23.55
2023-04-17T14:54:51.886Z,23.73
2023-04-17T14:57:41.433Z,24.90
2023-04-17T15:00:29.469Z,25.17
2023-04-17T15:03:16.798Z,24.58
2023-04-17T15:06:04.717Z,23.95
2023-04-17T15:08:52.663Z,24.35
2023-04-17T15:11:40.531Z,22.77
2023-04-17T15:14:30.480Z,22.00
2023-04-17T15:17:18.325Z,20.40
2023-04-17T15:20:07.078Z,20.70
2023-04-17T15:22:56.449Z,20.95
2023-04-17T15:25:44.284Z,20.83
2023-04-17T15:28:33.174Z,20.63
2023-04-17T15:31:22.352Z,20.67
2023-04-17T15:34:10.641Z,19.52
2023-04-17T15:36:58.559Z,21.08
2023-04-17T15:39:46.233Z,24.33
2023-04-17T15:42:33.938Z,25.38
2023-04-17T15:45:21.266Z,24.63
2023-04-17T15:48:10.285Z,25.05
2023-04-17T15:50:58.330Z,24.35
2023-04-17T15:53:46.231Z,23.95
2023-04-17T15:56:34.279Z,23.73
2023-04-17T15:59:22.413Z,24.08
2023-04-17T16:02:11.798Z,23.10
2023-04-17T16:05:01.118Z,22.02
2023-04-17T16:07:48.787Z,22.52
2023-04-17T16:10:36.861Z,22.10
2023-04-17T16:13:24.402Z,21.03
2023-04-17T16:16:12.104Z,20.88
2023-04-17T16:18:59.827Z,20.38
2023-04-17T16:21:48.880Z,19.70
2023-04-17T16:24:36.856Z,18.95
2023-04-17T16:27:24.347Z,17.30
2023-04-17T16:30:12.354Z,17.35
2023-04-17T16:32:59.894Z,18.03
2023-04-17T16:35:48.207Z,17.27
2023-04-17T16:38:38.794Z,16.92
2023-04-17T16:41:25.892Z,17.05
2023-04-17T16:44:13.958Z,16.90
2023-04-17T16:49:52.482Z,17.42
2023-04-17T16:52:41.063Z,16.83
2023-04-17T16:55:29.620Z,16.42
2023-04-17T16:58:17.579Z,16.92
2023-04-17T17:01:05.267Z,15.90
2023-04-17T17:03:53.224Z,15.90
2023-04-17T17:06:40.616Z,15.48
2023-04-17T17:09:28.764Z,14.03
2023-04-17T17:12:17.722Z,13.70
2023-04-17T17:15:05.323Z,13.85
2023-04-17T17:17:53.552Z,14.10
2023-04-17T17:20:41.588Z,13.65
2023-04-17T17:23:29.563Z,14.00
2023-04-17T17:26:17.287Z,13.90
2023-04-17T17:29:06.594Z,14.13
2023-04-17T17:31:54.285Z,14.45
2023-04-17T17:34:41.831Z,15.07
2023-04-17T17:37:29.276Z,13.38
2023-04-17T17:40:17.618Z,13.73
2023-04-17T17:43:04.551Z,14.77
2023-04-17T17:45:54.075Z,13.95
2023-04-17T17:48:41.350Z,14.88
2023-04-17T17:51:28.377Z,13.05
2023-04-17T17:54:15.982Z,13.20
2023-04-17T17:57:04.259Z,14.98
2023-04-17T17:59:51.656Z,13.52
2023-04-17T18:02:40.197Z,14.70
2023-04-17T18:05:28.044Z,13.98
2023-04-17T18:08:16.415Z,14.07
2023-04-17T18:11:04.464Z,13.63
2023-04-17T18:13:51.768Z,13.43
2023-04-17T18:16:39.308Z,14.18
2023-04-17T18:19:28.251Z,14.00
2023-04-17T18:22:16.114Z,17.23
2023-04-17T18:25:03.820Z,15.23
2023-04-17T18:27:51.553Z,14.45
2023-04-17T18:30:39.274Z,14.15
2023-04-17T18:33:26.938Z,14.15
2023-04-17T18:36:15.704Z,14.10
2023-04-17T18:39:04.363Z,14.60
2023-04-17T18:41:51.857Z,13.90
2023-04-17T18:44:39.395Z,13.88
2023-04-17T18:47:26.846Z,15.13
2023-04-17T18:50:14.401Z,15.20
2023-04-17T18:53:03.543Z,14.48
2023-04-17T18:55:52.643Z,14.13
2023-04-17T18:58:40.729Z,14.32
2023-04-17T19:01:28.089Z,14.55
2023-04-17T19:04:16.232Z,14.27
2023-04-17T19:07:04.269Z,15.27
2023-04-17T19:09:52.984Z,14.70
2023-04-17T19:12:42.941Z,14.53
2023-04-17T19:15:30.642Z,15.52
2023-04-17T19:18:17.573Z,14.57
2023-04-17T19:21:05.548Z,15.10
2023-04-17T19:23:53.412Z,15.73
2023-04-17T19:26:42.361Z,16.60
2023-04-17T19:29:30.210Z,15.63
2023-04-17T19:32:17.347Z,15.68
2023-04-17T19:35:05.787Z,15.55
2023-04-17T19:37:52.784Z,16.42
2023-04-17T19:40:40.317Z,18.20
2023-04-17T19:43:29.690Z,18.65
2023-04-17T19:46:17.634Z,17.30
2023-04-17T19:49:05.848Z,15.60
2023-04-17T19:51:53.520Z,15.85
2023-04-17T19:54:42.867Z,15.80
2023-04-17T19:57:30.807Z,16.95
2023-04-17T20:00:20.691Z,15.93
2023-04-17T20:03:08.288Z,16.90
2023-04-17T20:05:57.594Z,17.23
2023-04-17T20:08:45.440Z,18.73
2023-04-17T20:11:32.558Z,23.05
2023-04-17T20:14:19.674Z,23.07
2023-04-17T20:17:08.667Z,23.05
2023-04-17T20:19:55.864Z,21.80
2023-04-17T20:22:42.869Z,20.42
2023-04-17T20:25:30.408Z,18.90
2023-04-17T20:28:17.742Z,20.65
2023-04-17T20:31:05.293Z,17.58
2023-04-17T20:33:54.478Z,24.75
2023-04-17T20:36:42.460Z,21.85
2023-04-17T20:39:29.991Z,17.53
2023-04-17T20:42:18.125Z,17.93
2023-04-17T20:45:07.831Z,17.83
2023-04-17T20:47:56.914Z,17.85
2023-04-17T20:50:46.352Z,17.58
2023-04-17T20:53:34.514Z,18.75
2023-04-17T20:56:24.076Z,17.88
2023-04-17T20:59:11.604Z,18.77
2023-04-17T21:01:58.999Z,19.88
2023-04-17T21:04:46.279Z,19.63
2023-04-17T21:07:36.158Z,19.55
2023-04-17T21:10:26.252Z,18.30
2023-04-17T21:13:13.902Z,19.67
2023-04-17T21:16:01.333Z,18.38
2023-04-17T21:18:48.999Z,19.40
2023-04-17T21:21:37.668Z,19.48
2023-04-17T21:24:26.584Z,20.90
2023-04-17T21:27:13.658Z,20.40
2023-04-17T21:30:01.792Z,20.90
2023-04-17T21:32:49.748Z,21.25
2023-04-17T21:35:37.468Z,21.27
2023-04-17T21:38:24.706Z,21.23
2023-04-17T21:41:13.948Z,21.52
2023-04-17T21:44:02.685Z,21.33
2023-04-17T21:46:50.617Z,22.48
2023-04-17T21:49:37.702Z,21.83
2023-04-17T21:52:26.019Z,21.20
2023-04-17T21:55:14.054Z,22.75
2023-04-17T21:58:03.535Z,21.90
2023-04-17T22:00:51.304Z,22.17
2023-04-17T22:03:39.413Z,23.20
2023-04-17T22:06:27.076Z,23.30
2023-04-17T22:09:15.657Z,24.40
2023-04-17T22:12:12.548Z,23.08
2023-04-17T22:15:01.621Z,24.42
2023-04-17T22:17:49.532Z,23.67
2023-04-17T22:20:36.966Z,24.10
2023-04-17T22:23:24.842Z,24.83
2023-04-17T22:26:11.836Z,24.70
2023-04-17T22:28:59.586Z,24.48
2023-04-17T22:31:50.507Z,24.77
2023-04-17T22:34:39.569Z,25.67
2023-04-17T22:37:28.973Z,24.88
2023-04-17T22:40:16.607Z,25.77
2023-04-17T22:43:04.358Z,26.88
2023-04-17T22:45:52.133Z,26.15
2023-04-17T22:48:41.688Z,26.20
2023-04-17T22:51:29.580Z,25.60
2023-04-17T22:54:22.566Z,26.00
2023-04-17T22:57:11.648Z,25.70
2023-04-17T22:59:59.285Z,25.92
2023-04-17T23:02:47.658Z,25.67
2023-04-17T23:05:37.105Z,26.08
2023-04-17T23:08:25.307Z,25.33
2023-04-17T23:11:13.063Z,26.25
2023-04-17T23:14:00.792Z,26.48
2023-04-17T23:16:48.419Z,25.55
2023-04-17T23:19:36.279Z,25.45
2023-04-17T23:22:25.382Z,25.52
2023-04-17T23:25:13.794Z,25.15
2023-04-17T23:28:01.745Z,25.10
2023-04-17T23:30:49.575Z,24.98
2023-04-17T23:33:37.191Z,25.58
2023-04-17T23:36:25.015Z,24.92
2023-04-17T23:39:14.196Z,25.00
2023-04-17T23:42:07.005Z,25.33
2023-04-17T23:44:54.232Z,24.75
2023-04-17T23:47:42.170Z,25.33
2023-04-17T23:50:30.279Z,25.10
2023-04-17T23:54:15.300Z,25.30
2023-04-17T23:57:04.497Z,23.83
2023-04-17T23:59:54.056Z,24.30
